首页
METAR-TAF:

METAR-TAF

机场 :

貝爾格勒尼古拉·特斯拉機場

贝尔格莱德, 塞尔维亚

纬度: 44-49N, 经度: 020-17E, 海拔: 96米

当前天气观测

该预报发布于44分钟前的19:00 UTC
风速7节,风向北转西北
温度 16°C
湿度 72%
气压 1014 hPa
能见度10公里或以上
多云层高于4000英尺

METAR: LYBE 231900Z 33007KT 9999 BKN040 16/11 Q1014 NOSIG

时间: 21:44 (19:44 UTC)

预报

该预报发布于2小时和44分钟前的17:00 UTC
预报有效从23日的 18点(UTC)到 24日的 18点(UTC)
风速10节,风向北转西北
能见度10公里或以上
多云层高于3000英尺
成为
从 23日的 18点(UTC)到 23日的 20点(UTC)
风速4节,风向西
短暂存在
从 24日的 07点(UTC)到 24日的 12点(UTC)
风速14节,风向西转西北

TAF: LYBE 231700Z 2318/2418 33010KT 9999 BKN030 TX17/2414Z TN11/2403Z BECMG 2318/2320 26004KT TEMPO 2407/2412 29014KT

超过4000个机场的气象观测和天气预报(METAR&TAF报告)。

可查询的气象台以黄色和红色小点在地图上表示。

将鼠标移到小点上方,可查看气象台名称。

然后点击查看天气观测和预报。

如需切换地图:点击带黑十字的绿色按钮放大地图;点击带横线的绿色按钮缩小地图;或者点击绿色箭头查看邻近地区的地图。


METAR-TAF: